KGYL

Glencoe Municipal Airport

Glencoe, Minnesota, USA
METAR KGYL 170555Z AUTO 00000KT 7SM SCT012 M03/M03 A3008 RMK AO2 T10331033 11017 21033 400001033
Observed Flight Rules
Dec-17 @ 05:55 UTC (27 minutes ago) Visual Flight Rules
Wind Visibility Clouds
Calm 7 miles
  • Scattered at 1,200' AGL
Temperatures Readings
Current -3°C / 27°F
Dewpoint -3°C / 27°F
Humidity 100%
Altimeter 30.08" Hg
Pressure 1019 hPa
Elevation 302
METAR KGYL 170555Z AUTO 00000KT 7SM SCT012 M03/M03 A3008 RMK AO2 T10331033 11017 21033 400001033
Observed Flight Rules
Dec-17 @ 05:55 UTC
(27 minutes ago)
VFR
Wind Visibility
Calm 7 miles
Clouds
  • Scattered at 1,200' AGL
Temperature Dewpoint
-3°C / 27°F -3°C / 27°F
Humidity Altimeter Pressure
100% 30.08" Hg 1019 hPa